Time;durP1;ratioP1;P1;durP2;ratioP2;P2;SDS_P1;SDS_P2;PMS_P1;PMS_P2;Temp;Humidity;BMP_temperature;BMP_pressure;BME280_temperature;BME280_humidity;BME280_pressure;Samples;Min_cycle;Max_cycle;Signal;HPM_P1;HPM_P2
2022/01/20 00:04:16;;;;;;;4.70;2.72;;;;;;;-6.50;70.76;97153.94;5114221;28;20122;-63
2022/01/20 00:09:46;;;;;;;6.63;2.88;;;;;;;-6.39;70.65;97160.31;5084966;28;20047;-62
2022/01/20 00:23:17;;;;;;;8.00;3.00;;;;;;;-6.43;70.86;97148.28;5113875;28;20122;-63
2022/01/20 00:26:04;;;;;;;6.97;2.80;;;;;;;-6.35;70.60;97154.50;5114069;28;20031;-63
2022/01/20 00:33:43;;;;;;;5.03;2.67;;;;;;;-6.25;70.60;97147.22;5113795;28;20031;-62
2022/01/20 00:38:37;;;;;;;7.20;3.10;;;;;;;-6.33;70.63;97141.00;5113745;28;20020;-63
2022/01/20 00:41:04;;;;;;;6.20;2.78;;;;;;;-6.31;70.49;97136.81;5113555;28;20027;-64
2022/01/20 00:43:30;;;;;;;8.45;3.08;;;;;;;-6.39;70.55;97139.06;5113535;28;20020;-63
2022/01/20 00:45:55;;;;;;;6.88;3.30;;;;;;;-6.45;70.54;97134.59;5113618;28;20159;-62
2022/01/20 00:48:22;;;;;;;7.95;3.40;;;;;;;-6.52;71.09;97136.06;5113651;28;20119;-63
2022/01/20 00:50:48;;;;;;;4.85;3.25;;;;;;;-6.51;71.48;97130.16;5113583;28;20027;-63
2022/01/20 00:53:14;;;;;;;7.63;3.33;;;;;;;-6.57;71.61;97129.91;5113516;28;20046;-63
2022/01/20 00:55:40;;;;;;;6.38;3.17;;;;;;;-6.61;71.77;97125.50;5113416;28;20058;-63
2022/01/20 00:58:07;;;;;;;8.60;3.20;;;;;;;-6.57;71.65;97124.81;5115628;28;20055;-63
2022/01/20 01:00:33;;;;;;;5.88;2.95;;;;;;;-6.52;71.28;97117.34;5117654;27;20374;-63
2022/01/20 01:02:59;;;;;;;5.80;3.22;;;;;;;-6.49;71.18;97123.44;5117660;28;20496;-63
2022/01/20 01:05:26;;;;;;;6.68;3.55;;;;;;;-6.52;71.12;97122.44;5117659;28;20024;-63
2022/01/20 01:07:55;;;;;;;7.72;3.15;;;;;;;-6.56;71.54;97118.06;5117517;28;20458;-63
2022/01/20 01:10:27;;;;;;;5.13;3.63;;;;;;;-6.54;71.61;97107.09;5117544;27;20028;-63
2022/01/20 01:13:01;;;;;;;5.03;3.60;;;;;;;-6.52;71.40;97113.13;5117474;28;20023;-63
2022/01/20 01:15:35;;;;;;;6.38;3.22;;;;;;;-6.52;71.48;97102.06;5117622;28;20099;-63
2022/01/20 01:23:44;;;;;;;5.82;3.35;;;;;;;-6.54;71.30;97094.38;5117407;28;20024;-63
2022/01/20 01:26:17;;;;;;;8.93;4.00;;;;;;;-6.58;71.42;97086.56;5117282;28;20027;-63
2022/01/20 01:28:44;;;;;;;7.00;3.45;;;;;;;-6.61;71.56;97084.78;5117137;28;20477;-63
2022/01/20 01:33:41;;;;;;;5.70;3.58;;;;;;;-6.70;72.08;97084.41;5117123;28;20027;-63
2022/01/20 01:36:11;;;;;;;4.88;3.25;;;;;;;-6.61;71.84;97078.03;5116874;28;20063;-62
2022/01/20 01:38:38;;;;;;;7.00;3.80;;;;;;;-6.59;71.60;97070.44;5117140;28;20381;-63
2022/01/20 01:41:12;;;;;;;6.10;3.38;;;;;;;-6.58;71.34;97063.66;5116827;28;20032;-63
2022/01/20 01:43:41;;;;;;;13.65;3.88;;;;;;;-6.67;71.39;97062.50;5116960;28;20027;-63
2022/01/20 01:46:07;;;;;;;6.80;3.50;;;;;;;-6.63;71.39;97071.09;5116821;28;20488;-62
2022/01/20 01:48:34;;;;;;;6.20;4.00;;;;;;;-6.61;71.42;97072.03;5116877;28;20081;-62
2022/01/20 01:51:00;;;;;;;11.20;3.72;;;;;;;-6.61;71.36;97065.28;5116865;28;20465;-64
2022/01/20 01:53:26;;;;;;;8.57;3.50;;;;;;;-6.64;71.63;97065.16;5116738;28;20034;-63
2022/01/20 01:55:52;;;;;;;8.65;3.47;;;;;;;-6.54;71.37;97068.06;5116510;28;20027;-63
2022/01/20 01:58:18;;;;;;;9.70;3.28;;;;;;;-6.56;70.86;97054.41;5116649;28;20373;-63
2022/01/20 02:00:44;;;;;;;7.07;3.50;;;;;;;-6.60;70.82;97051.75;5116658;28;20024;-64
2022/01/20 02:03:13;;;;;;;7.60;3.85;;;;;;;-6.62;71.02;97058.44;5116573;28;20024;-63
2022/01/20 02:05:52;;;;;;;6.13;3.47;;;;;;;-6.67;71.25;97059.06;5116409;28;20032;-63
2022/01/20 02:08:36;;;;;;;6.38;3.80;;;;;;;-6.85;71.24;97053.34;5116165;28;20024;-63
2022/01/20 02:19:15;;;;;;;7.25;3.55;;;;;;;-7.02;72.47;97041.63;5116210;28;20059;-63
2022/01/20 02:21:52;;;;;;;7.85;3.90;;;;;;;-7.02;72.44;97042.50;5116101;28;20123;-62
2022/01/20 02:24:19;;;;;;;8.07;3.95;;;;;;;-6.99;71.98;97035.00;5116212;28;20024;-63
2022/01/20 02:26:45;;;;;;;12.25;4.60;;;;;;;-6.98;71.80;97034.19;5116153;28;20070;-63
2022/01/20 02:29:11;;;;;;;9.90;3.55;;;;;;;-6.98;71.47;97029.09;5115957;28;20019;-63
2022/01/20 02:31:37;;;;;;;7.93;3.67;;;;;;;-7.08;71.53;97019.38;5116014;28;20020;-63
2022/01/20 02:34:03;;;;;;;6.78;3.78;;;;;;;-7.17;71.63;97021.56;5116011;28;20020;-64
2022/01/20 02:36:30;;;;;;;11.85;4.10;;;;;;;-7.27;72.24;97015.25;5115773;28;20099;-62
2022/01/20 02:39:01;;;;;;;5.95;3.58;;;;;;;-7.23;72.48;97012.00;5116057;28;20094;-63
2022/01/20 02:46:55;;;;;;;6.75;4.32;;;;;;;-7.17;72.25;96999.53;5115807;28;20022;-62
2022/01/20 02:49:20;;;;;;;8.32;4.28;;;;;;;-7.18;72.22;97000.34;5115585;28;20028;-62
2022/01/20 02:51:48;;;;;;;5.72;3.85;;;;;;;-7.13;72.45;96993.75;5115650;28;20031;-64
2022/01/20 02:54:14;;;;;;;9.75;4.28;;;;;;;-7.17;72.21;96997.00;5115542;28;20405;-64
2022/01/20 02:56:39;;;;;;;8.95;4.50;;;;;;;-7.27;72.31;96992.34;5115373;28;20053;-64
2022/01/20 02:59:05;;;;;;;10.35;4.60;;;;;;;-7.25;72.14;96991.59;5115429;28;20030;-62
2022/01/20 03:01:32;;;;;;;12.88;4.57;;;;;;;-7.18;71.97;96995.25;5115511;28;20027;-63
2022/01/20 03:03:58;;;;;;;6.60;3.92;;;;;;;-7.21;71.71;96995.13;5115470;28;20030;-62
2022/01/20 03:06:24;;;;;;;7.53;4.38;;;;;;;-7.29;71.92;96996.53;5115253;28;20032;-64
2022/01/20 03:08:49;;;;;;;7.47;3.63;;;;;;;-7.33;71.94;96987.03;5115247;27;20053;-64
2022/01/20 03:11:15;;;;;;;8.35;4.07;;;;;;;-7.32;71.97;96993.84;5115222;28;20541;-62
2022/01/20 03:13:40;;;;;;;6.30;3.65;;;;;;;-7.30;71.88;96990.56;5115241;28;20481;-64
2022/01/20 03:16:06;;;;;;;5.88;3.42;;;;;;;-7.30;71.79;96984.59;5115161;28;20151;-64
2022/01/20 03:18:32;;;;;;;6.50;3.63;;;;;;;-7.28;71.79;96993.16;5114796;28;20130;-63
2022/01/20 03:20:57;;;;;;;7.72;3.47;;;;;;;-7.35;71.61;96989.50;5114326;28;20023;-62
2022/01/20 03:23:23;;;;;;;11.40;4.63;;;;;;;-7.46;72.79;96994.19;5115042;28;20473;-63
2022/01/20 03:25:48;;;;;;;7.75;4.35;;;;;;;-7.44;72.90;96992.53;5114962;28;20111;-63
2022/01/20 03:28:14;;;;;;;10.48;4.35;;;;;;;-7.36;72.61;96988.66;5115081;28;20090;-63
2022/01/20 03:30:40;;;;;;;6.72;4.13;;;;;;;-7.37;72.46;96980.97;5114848;28;20031;-63
2022/01/20 03:33:05;;;;;;;7.07;4.03;;;;;;;-7.41;72.23;96977.41;5114732;28;20489;-63
2022/01/20 03:35:31;;;;;;;6.38;3.95;;;;;;;-7.34;72.28;96968.38;5114871;28;20461;-63
2022/01/20 03:37:58;;;;;;;9.30;3.92;;;;;;;-7.40;72.15;96955.41;5114667;28;20454;-63
2022/01/20 03:40:23;;;;;;;7.18;4.15;;;;;;;-7.42;72.00;96957.00;5114728;28;20027;-63
2022/01/20 03:42:49;;;;;;;10.85;4.22;;;;;;;-7.43;72.13;96957.81;5114644;28;20110;-63
2022/01/20 03:45:15;;;;;;;5.50;3.75;;;;;;;-7.47;72.01;96956.81;5114407;28;20423;-63
2022/01/20 03:47:42;;;;;;;6.68;4.05;;;;;;;-7.53;72.61;96960.00;5114580;28;20038;-62
2022/01/20 03:50:59;;;;;;;8.38;4.15;;;;;;;-7.62;72.83;96952.00;5114394;28;20080;-64
2022/01/20 03:52:53;;;;;;;6.43;3.80;;;;;;;-7.78;73.54;96958.16;5114616;28;20032;-63
2022/01/20 03:55:19;;;;;;;12.45;4.57;;;;;;;-7.78;73.78;96955.59;5114334;28;20354;-63
2022/01/20 03:57:44;;;;;;;12.50;4.05;;;;;;;-7.76;73.41;96952.34;5114387;28;20027;-64
2022/01/20 04:00:11;;;;;;;7.45;4.22;;;;;;;-7.79;73.20;96954.75;5114413;28;20034;-63
2022/01/20 04:02:36;;;;;;;7.82;4.22;;;;;;;-7.73;73.27;96951.59;5114198;28;20034;-63
2022/01/20 04:05:02;;;;;;;5.72;3.95;;;;;;;-7.66;73.25;96947.59;5114187;28;20023;-63
2022/01/20 04:07:27;;;;;;;10.02;4.88;;;;;;;-7.64;73.59;96951.09;5114146;28;20024;-64
2022/01/20 04:09:53;;;;;;;8.73;4.18;;;;;;;-7.67;73.49;96948.41;5114076;27;20043;-63
2022/01/20 04:12:21;;;;;;;8.65;4.15;;;;;;;-7.77;73.52;96954.81;5114028;28;20133;-63
2022/01/20 04:14:48;;;;;;;9.82;4.53;;;;;;;-7.78;73.87;96956.47;5113930;28;20079;-63
2022/01/20 04:17:20;;;;;;;10.50;4.47;;;;;;;-7.75;73.76;96956.63;5113863;28;20024;-63
2022/01/20 04:19:46;;;;;;;6.97;3.95;;;;;;;-7.68;73.28;96952.63;5113864;28;20043;-62
2022/01/20 04:22:12;;;;;;;7.53;3.95;;;;;;;-7.63;73.01;96952.81;5114089;28;20015;-63
2022/01/20 04:24:38;;;;;;;8.93;3.60;;;;;;;-7.60;73.13;96950.41;5113977;28;20024;-63
2022/01/20 04:27:04;;;;;;;11.48;3.97;;;;;;;-7.58;72.92;96953.00;5112726;28;20424;-62
2022/01/20 04:29:31;;;;;;;8.07;3.97;;;;;;;-7.58;72.75;96951.34;5113870;28;20389;-63
2022/01/20 04:31:57;;;;;;;8.10;4.32;;;;;;;-7.55;72.57;96953.13;5113748;28;20066;-64
2022/01/20 04:34:23;;;;;;;7.53;3.95;;;;;;;-7.54;72.67;96953.19;5113687;28;20054;-62
2022/01/20 04:36:51;;;;;;;11.30;8.38;;;;;;;-7.60;72.63;96950.41;5113705;28;20028;-64
2022/01/20 04:39:22;;;;;;;11.75;7.18;;;;;;;-7.58;72.85;96950.47;5113781;28;20059;-63
2022/01/20 04:41:49;;;;;;;9.52;6.63;;;;;;;-7.54;72.99;96949.78;5113784;28;20043;-63
2022/01/20 04:44:29;;;;;;;7.80;4.72;;;;;;;-7.63;73.14;96946.06;5113635;28;20024;-63
2022/01/20 04:47:04;;;;;;;13.40;4.80;;;;;;;-7.65;73.18;96946.81;5113612;28;20020;-63
2022/01/20 04:57:50;;;;;;;7.72;4.10;;;;;;;-7.76;73.37;96947.25;5113786;28;20123;-63
2022/01/20 05:00:16;;;;;;;8.73;3.97;;;;;;;-7.84;73.39;96940.09;5113577;28;20059;-63
2022/01/20 05:02:42;;;;;;;8.50;3.60;;;;;;;-7.91;73.59;96941.53;5113561;28;20023;-63
2022/01/20 05:05:08;;;;;;;11.90;4.38;;;;;;;-7.99;74.03;96933.59;5113450;28;20020;-63
2022/01/20 05:07:34;;;;;;;8.07;4.25;;;;;;;-8.04;73.94;96927.47;5113339;28;20016;-63
2022/01/20 05:10:00;;;;;;;9.40;4.32;;;;;;;-7.95;74.00;96930.38;5112033;28;20028;-63
2022/01/20 05:12:37;;;;;;;11.40;4.57;;;;;;;-7.95;73.99;96935.44;5113400;28;20031;-62
2022/01/20 05:15:04;;;;;;;6.93;3.83;;;;;;;-7.91;74.05;96933.91;5113421;28;20055;-63
2022/01/20 05:17:29;;;;;;;13.05;4.65;;;;;;;-7.94;74.04;96932.13;5113135;28;20420;-63
2022/01/20 05:19:55;;;;;;;10.80;4.30;;;;;;;-7.99;73.93;96934.47;5113008;28;20052;-63
2022/01/20 05:22:20;;;;;;;10.20;4.30;;;;;;;-7.98;74.00;96930.25;5113282;28;20053;-63
2022/01/20 05:24:46;;;;;;;11.02;4.32;;;;;;;-8.07;74.61;96928.19;5113348;28;20024;-63
2022/01/20 05:27:11;;;;;;;7.45;4.00;;;;;;;-8.01;74.69;96925.06;5113334;28;20034;-63
2022/01/20 05:29:37;;;;;;;7.55;4.75;;;;;;;-7.92;74.33;96929.66;5113236;28;20111;-63
2022/01/20 05:32:03;;;;;;;6.75;4.55;;;;;;;-7.93;74.39;96925.34;5113138;28;20031;-63
2022/01/20 05:34:28;;;;;;;10.90;4.68;;;;;;;-7.95;74.50;96930.38;5111941;28;20065;-63
2022/01/20 05:36:54;;;;;;;14.55;5.53;;;;;;;-7.89;73.71;96925.53;5113010;28;20035;-64
2022/01/20 05:39:19;;;;;;;6.35;3.95;;;;;;;-7.79;73.53;96933.56;5113108;28;20067;-62
2022/01/20 05:41:46;;;;;;;8.13;4.03;;;;;;;-7.70;73.18;96927.97;5113114;28;20077;-64
2022/01/20 05:44:11;;;;;;;7.05;3.95;;;;;;;-7.64;72.76;96931.63;5115079;28;20024;-63
2022/01/20 05:46:44;;;;;;;7.50;3.85;;;;;;;-7.66;72.72;96933.25;5116786;28;20487;-64
2022/01/20 05:49:10;;;;;;;20.58;4.75;;;;;;;-7.66;72.81;96938.31;5116844;28;20687;-64
2022/01/20 05:51:40;;;;;;;13.48;5.07;;;;;;;-7.61;72.91;96944.44;5116726;28;20029;-62
2022/01/20 05:54:07;;;;;;;12.20;4.30;;;;;;;-7.66;73.10;96938.31;5116838;28;20028;-62
2022/01/20 05:56:34;;;;;;;10.57;4.15;;;;;;;-7.56;72.99;96936.16;5116606;28;20111;-63
2022/01/20 05:58:59;;;;;;;11.07;4.22;;;;;;;-7.52;72.28;96925.28;5116558;28;20012;-63
2022/01/20 06:01:26;;;;;;;7.72;3.95;;;;;;;-7.47;72.22;96928.88;5116634;28;20020;-63
2022/01/20 06:03:52;;;;;;;12.10;4.47;;;;;;;-7.44;72.09;96926.44;5116699;28;20027;-64
2022/01/20 06:06:18;;;;;;;9.65;3.75;;;;;;;-7.45;72.08;96928.94;5116649;28;20478;-63
2022/01/20 06:08:44;;;;;;;9.55;4.43;;;;;;;-7.44;72.13;96928.13;5116433;28;20091;-63
2022/01/20 06:11:10;;;;;;;8.52;4.38;;;;;;;-7.46;72.15;96920.44;5116409;28;20027;-64
2022/01/20 06:13:37;;;;;;;9.10;4.72;;;;;;;-7.41;72.32;96918.09;5116365;28;20027;-63
2022/01/20 06:16:03;;;;;;;7.72;5.00;;;;;;;-7.39;72.22;96914.78;5116219;28;20381;-63
2022/01/20 06:18:28;;;;;;;7.88;4.10;;;;;;;-7.40;72.45;96910.53;5116027;27;20036;-64
2022/01/20 06:20:54;;;;;;;12.63;4.57;;;;;;;-7.23;73.61;96903.53;5116277;28;20034;-62
2022/01/20 06:23:21;;;;;;;7.35;4.07;;;;;;;-5.77;72.22;96904.25;5116205;28;20027;-64
2022/01/20 06:25:48;;;;;;;10.00;3.70;;;;;;;-3.64;65.66;96910.97;5116120;28;20027;-62
2022/01/20 06:28:15;;;;;;;5.50;3.05;;;;;;;-1.65;58.84;96903.78;5116042;28;20028;-64
2022/01/20 06:30:41;;;;;;;6.20;3.47;;;;;;;0.31;53.05;96899.31;5116096;28;20386;-63
2022/01/20 06:33:07;;;;;;;6.47;2.92;;;;;;;1.99;47.16;96888.97;5115985;28;20024;-65
2022/01/20 06:35:33;;;;;;;5.68;2.90;;;;;;;3.51;44.63;96891.38;5115913;28;20020;-65
2022/01/20 06:37:59;;;;;;;9.07;3.03;;;;;;;5.05;41.00;96903.25;5116103;28;20024;-64
2022/01/20 06:40:26;;;;;;;9.00;3.40;;;;;;;6.24;37.88;96894.03;5115971;28;20011;-65
2022/01/20 06:42:52;;;;;;;4.82;3.00;;;;;;;7.21;35.48;96889.81;5115898;28;20039;-63
2022/01/20 06:45:19;;;;;;;6.20;3.33;;;;;;;8.39;33.86;96883.00;5115843;28;20023;-66
2022/01/20 06:47:45;;;;;;;4.70;3.13;;;;;;;9.47;32.33;96889.84;5115752;27;20015;-66
2022/01/20 06:50:12;;;;;;;6.15;3.03;;;;;;;10.31;30.61;96885.66;5115901;28;20030;-66
2022/01/20 06:52:39;;;;;;;7.40;3.47;;;;;;;10.91;29.80;96888.13;5115593;28;20020;-64
2022/01/20 06:55:10;;;;;;;5.97;3.53;;;;;;;11.56;28.93;96886.78;5114330;28;20496;-64
2022/01/20 06:57:36;;;;;;;5.28;3.60;;;;;;;12.12;28.07;96885.59;5115384;28;20039;-64
2022/01/20 07:00:12;;;;;;;4.28;3.33;;;;;;;12.72;27.37;96884.09;5115481;27;20103;-65
2022/01/20 07:02:38;;;;;;;5.63;3.33;;;;;;;13.32;26.51;96885.13;5115354;28;20033;-64
2022/01/20 07:05:04;;;;;;;6.78;3.38;;;;;;;13.94;25.80;96891.19;5115439;28;20099;-62
2022/01/20 07:07:31;;;;;;;6.35;3.60;;;;;;;13.79;25.02;96882.25;5115580;28;20015;-67
2022/01/20 07:09:57;;;;;;;5.60;3.40;;;;;;;14.26;24.80;96888.81;5115594;28;20023;-65
2022/01/20 07:12:23;;;;;;;6.38;3.58;;;;;;;15.12;23.82;96890.00;5115295;28;20030;-67
2022/01/20 07:14:48;;;;;;;4.95;3.58;;;;;;;15.78;22.82;96892.75;5115152;28;20377;-66
2022/01/20 07:17:14;;;;;;;9.07;3.97;;;;;;;16.11;22.31;96888.41;5115026;28;20036;-66
2022/01/20 07:19:40;;;;;;;8.27;4.30;;;;;;;16.52;21.78;96890.50;5114855;28;20185;-66
2022/01/20 07:22:05;;;;;;;5.78;4.10;;;;;;;16.79;21.59;96884.59;5115416;28;20026;-66
2022/01/20 07:24:31;;;;;;;7.13;4.07;;;;;;;17.19;21.17;96888.50;5115211;28;20370;-66
2022/01/20 07:26:58;;;;;;;7.65;4.22;;;;;;;17.63;20.04;96867.38;5114975;27;20027;-65
2022/01/20 07:29:24;;;;;;;8.23;4.07;;;;;;;17.75;20.47;96865.78;5115095;28;20022;-63
2022/01/20 07:31:49;;;;;;;8.23;4.03;;;;;;;18.00;20.29;96864.25;5114861;28;20116;-67
2022/01/20 07:34:16;;;;;;;7.50;4.68;;;;;;;18.14;19.53;96866.91;5114867;28;20095;-63
2022/01/20 07:36:42;;;;;;;10.50;4.68;;;;;;;18.31;19.90;96855.22;5114665;28;20059;-65
2022/01/20 07:39:08;;;;;;;8.00;4.60;;;;;;;18.48;19.82;96858.56;5114652;28;20366;-64
2022/01/20 07:41:33;;;;;;;8.10;5.03;;;;;;;18.03;20.50;96858.78;5114656;28;20362;-66
2022/01/20 07:43:59;;;;;;;7.95;5.03;;;;;;;18.24;19.87;96850.44;5114630;28;20045;-63
2022/01/20 07:46:25;;;;;;;10.02;4.78;;;;;;;18.79;19.05;96861.00;5114770;28;20012;-64
2022/01/20 07:48:51;;;;;;;8.00;4.50;;;;;;;19.16;19.42;96863.88;5114459;28;20484;-63
2022/01/20 07:51:17;;;;;;;9.68;4.75;;;;;;;19.75;18.21;96852.81;5114465;28;20062;-67
2022/01/20 07:53:42;;;;;;;8.25;4.88;;;;;;;20.02;17.67;96858.00;5114419;28;20024;-68
2022/01/20 07:56:08;;;;;;;8.05;4.30;;;;;;;19.91;17.34;96855.22;5114281;28;20031;-68
2022/01/20 07:58:35;;;;;;;10.32;4.95;;;;;;;19.97;17.65;96859.25;5114285;28;20023;-66
2022/01/20 08:01:00;;;;;;;7.03;4.68;;;;;;;19.96;17.48;96858.41;5114236;28;20431;-66
2022/01/20 08:03:26;;;;;;;6.97;4.55;;;;;;;19.74;17.58;96861.75;5114279;27;20019;-65
2022/01/20 08:05:52;;;;;;;6.93;4.75;;;;;;;19.49;18.16;96860.78;5111951;28;20469;-65
2022/01/20 08:08:17;;;;;;;9.30;4.88;;;;;;;18.64;18.88;96874.34;5114076;28;20077;-64
2022/01/20 08:10:43;;;;;;;9.98;6.00;;;;;;;18.15;19.08;96870.41;5114112;28;20052;-68
2022/01/20 08:13:08;;;;;;;8.52;5.80;;;;;;;18.77;18.58;96862.91;5114098;28;20046;-68
2022/01/20 08:15:34;;;;;;;13.02;7.07;;;;;;;18.96;18.63;96861.69;5113948;28;20026;-65
2022/01/20 08:18:00;;;;;;;10.88;6.55;;;;;;;19.72;18.33;96863.66;5113979;28;20031;-65
2022/01/20 08:20:25;;;;;;;10.77;7.55;;;;;;;20.18;17.42;96863.06;5113706;28;20039;-65
2022/01/20 08:22:51;;;;;;;12.25;7.30;;;;;;;20.16;17.49;96856.16;5113946;28;20028;-67
2022/01/20 08:25:19;;;;;;;18.23;9.45;;;;;;;20.17;18.09;96857.88;5114045;28;20028;-65
2022/01/20 08:27:46;;;;;;;13.38;7.43;;;;;;;20.01;18.13;96858.97;5113826;28;20055;-65
2022/01/20 08:30:15;;;;;;;12.48;7.45;;;;;;;20.02;17.48;96857.16;5113768;28;20031;-65
2022/01/20 08:32:41;;;;;;;14.57;7.18;;;;;;;19.64;17.41;96846.47;5113974;28;20031;-64
2022/01/20 08:35:09;;;;;;;13.48;7.25;;;;;;;19.31;17.73;96850.50;5113868;28;20024;-64
2022/01/20 08:37:43;;;;;;;14.63;7.38;;;;;;;19.12;18.48;96853.56;5112581;28;20047;-65
2022/01/20 08:40:13;;;;;;;13.00;7.40;;;;;;;18.59;18.88;96862.31;5113758;28;20027;-68
2022/01/20 08:42:40;;;;;;;15.82;6.65;;;;;;;17.69;20.10;96859.06;5113769;28;20466;-67
2022/01/20 08:45:07;;;;;;;7.70;5.05;;;;;;;16.87;20.05;96844.53;5113749;28;20393;-67
2022/01/20 08:47:33;;;;;;;12.23;4.90;;;;;;;16.00;21.87;96844.13;5113597;28;20024;-64
2022/01/20 08:49:59;;;;;;;9.35;4.93;;;;;;;15.61;22.31;96839.13;5113557;28;20077;-67
2022/01/20 08:52:28;;;;;;;9.57;5.78;;;;;;;14.97;22.53;96846.84;5113550;28;20027;-63
2022/01/20 08:54:55;;;;;;;13.05;4.72;;;;;;;14.08;23.43;96846.69;5113608;28;20482;-63
2022/01/20 08:57:20;;;;;;;8.80;5.13;;;;;;;13.17;23.67;96849.00;5113303;28;20027;-67
2022/01/20 08:59:46;;;;;;;10.75;5.03;;;;;;;12.49;25.35;96851.78;5113420;28;20016;-66
2022/01/20 09:02:12;;;;;;;8.80;5.00;;;;;;;11.95;24.91;96849.50;5113499;28;20023;-64
2022/01/20 09:04:38;;;;;;;9.23;4.47;;;;;;;10.98;27.70;96858.22;5113421;28;20023;-66
2022/01/20 09:07:04;;;;;;;7.20;4.10;;;;;;;10.03;28.67;96863.88;5113346;28;20100;-68
2022/01/20 09:09:30;;;;;;;7.68;4.65;;;;;;;9.20;29.45;96865.34;5113354;28;20061;-66
2022/01/20 09:12:18;;;;;;;9.75;4.70;;;;;;;8.94;30.54;96866.94;5113437;28;20016;-66
2022/01/20 09:17:31;;;;;;;11.00;5.45;;;;;;;7.54;34.10;96873.56;5113276;28;20034;-66
2022/01/20 09:19:58;;;;;;;8.20;4.97;;;;;;;7.05;35.23;96871.03;5116646;28;20035;-66
2022/01/20 09:22:25;;;;;;;12.63;5.55;;;;;;;6.65;36.68;96857.03;5117350;28;20031;-65
2022/01/20 09:24:51;;;;;;;10.43;5.75;;;;;;;6.55;37.63;96856.28;5117315;27;20019;-64
2022/01/20 09:27:19;;;;;;;12.85;5.10;;;;;;;6.28;37.38;96845.47;5117386;28;20024;-65
2022/01/20 09:29:46;;;;;;;11.27;5.65;;;;;;;6.23;37.00;96832.53;5117417;28;20388;-62
2022/01/20 09:32:13;;;;;;;10.93;5.20;;;;;;;6.18;36.63;96835.22;5117261;28;20028;-63
2022/01/20 09:34:39;;;;;;;9.45;5.20;;;;;;;5.89;36.73;96835.63;5117145;28;20066;-65
2022/01/20 09:37:05;;;;;;;11.20;5.57;;;;;;;5.91;38.75;96828.69;5117177;28;20051;-63
2022/01/20 09:39:31;;;;;;;17.70;5.45;;;;;;;6.10;37.82;96828.44;5117045;28;20465;-63
2022/01/20 09:41:58;;;;;;;11.45;5.82;;;;;;;6.22;37.83;96825.66;5117064;28;20027;-63
2022/01/20 09:44:25;;;;;;;8.85;4.80;;;;;;;6.14;37.73;96812.78;5116909;28;20055;-63
2022/01/20 09:46:50;;;;;;;12.45;4.85;;;;;;;6.11;36.33;96809.38;5116881;28;20016;-64
2022/01/20 09:49:16;;;;;;;9.18;5.50;;;;;;;6.00;37.25;96805.19;5116907;28;20031;-65
2022/01/20 09:51:42;;;;;;;12.40;5.35;;;;;;;6.07;37.61;96804.22;5116799;28;20019;-62
2022/01/20 09:54:08;;;;;;;9.73;5.93;;;;;;;6.09;37.62;96803.34;5116814;28;20554;-65
2022/01/20 09:56:34;;;;;;;12.35;5.72;;;;;;;6.13;38.02;96794.59;5116563;28;20047;-65
2022/01/20 09:59:00;;;;;;;9.82;5.63;;;;;;;6.16;38.28;96785.03;5116689;28;20477;-62
2022/01/20 10:01:50;;;;;;;10.98;5.30;;;;;;;6.24;37.97;96784.91;5116693;28;20020;-63
2022/01/20 10:04:29;;;;;;;12.75;6.15;;;;;;;6.15;39.57;96777.28;5116676;28;20461;-62
2022/01/20 10:07:06;;;;;;;12.18;6.03;;;;;;;6.15;39.71;96779.88;5116587;28;20028;-64
2022/01/20 10:09:39;;;;;;;13.45;6.30;;;;;;;6.17;39.56;96767.72;5116489;28;20465;-64
2022/01/20 10:12:07;;;;;;;11.52;6.05;;;;;;;6.22;37.44;96767.63;5116430;28;20111;-65
2022/01/20 10:14:50;;;;;;;10.60;5.82;;;;;;;6.34;38.28;96770.03;5116470;28;20414;-65
2022/01/20 10:17:24;;;;;;;9.75;6.22;;;;;;;6.18;38.43;96759.03;5116468;28;20446;-65
2022/01/20 10:19:57;;;;;;;14.40;6.55;;;;;;;6.30;38.88;96761.41;5116131;28;20074;-62
2022/01/20 10:22:24;;;;;;;16.38;6.63;;;;;;;6.42;37.79;96752.53;5116257;28;20032;-63
2022/01/20 10:25:09;;;;;;;13.32;6.68;;;;;;;6.38;37.59;96748.28;5116279;28;20088;-63
2022/01/20 10:27:46;;;;;;;12.38;6.93;;;;;;;6.28;39.16;96745.00;5116221;28;20031;-63
2022/01/20 10:30:12;;;;;;;15.40;6.22;;;;;;;6.39;38.78;96741.34;5116053;28;20584;-66
2022/01/20 10:32:40;;;;;;;10.57;5.45;;;;;;;6.36;37.34;96734.47;5116015;28;20028;-62
2022/01/20 10:35:07;;;;;;;10.77;5.68;;;;;;;6.34;38.86;96727.56;5115981;28;20026;-61
2022/01/20 10:37:33;;;;;;;8.95;5.22;;;;;;;6.32;36.69;96727.59;5115848;28;20386;-63
2022/01/20 10:40:14;;;;;;;11.95;5.40;;;;;;;6.31;37.92;96725.91;5115880;28;20020;-63
2022/01/20 10:42:45;;;;;;;7.65;4.97;;;;;;;6.39;36.53;96729.22;5115729;27;20023;-65
2022/01/20 10:45:28;;;;;;;11.50;5.32;;;;;;;6.39;37.54;96718.84;5115866;28;20443;-64
2022/01/20 10:47:57;;;;;;;8.45;4.88;;;;;;;6.26;37.71;96706.94;5115790;28;20081;-62
2022/01/20 10:50:30;;;;;;;14.07;6.40;;;;;;;6.25;36.30;96708.69;5115913;28;20099;-63
2022/01/20 10:52:56;;;;;;;11.73;5.45;;;;;;;6.30;37.13;96696.44;5115838;28;20027;-64
2022/01/20 10:55:28;;;;;;;12.43;6.05;;;;;;;6.26;38.13;96692.19;5115621;28;20123;-65
2022/01/20 10:57:55;;;;;;;12.50;6.28;;;;;;;6.30;38.10;96701.66;5115482;28;20093;-64
2022/01/20 11:00:25;;;;;;;12.70;6.45;;;;;;;6.40;37.62;96696.28;5115689;28;20376;-63
2022/01/20 11:02:57;;;;;;;17.55;6.82;;;;;;;6.53;38.47;96694.31;5115602;28;20081;-63
2022/01/20 11:05:25;;;;;;;9.85;5.70;;;;;;;6.47;36.58;96687.47;5115546;28;20023;-63
2022/01/20 11:07:52;;;;;;;12.57;6.45;;;;;;;6.42;36.64;96678.94;5115395;28;20385;-63
2022/01/20 11:10:18;;;;;;;13.52;6.70;;;;;;;6.41;37.72;96687.63;5113971;28;20438;-62
2022/01/20 11:12:44;;;;;;;12.68;6.20;;;;;;;6.51;37.25;96689.16;5115226;28;20031;-64
2022/01/20 11:15:15;;;;;;;12.38;6.40;;;;;;;6.59;37.32;96694.19;5113973;28;20498;-63
2022/01/20 11:17:42;;;;;;;7.80;5.45;;;;;;;6.54;36.24;96696.88;5115034;27;20051;-63
2022/01/20 11:20:10;;;;;;;14.43;5.80;;;;;;;6.61;35.98;96688.97;5114978;28;20093;-63
2022/01/20 11:22:37;;;;;;;10.13;5.65;;;;;;;6.63;36.16;96688.06;5115016;28;20020;-62
2022/01/20 11:25:09;;;;;;;9.60;5.35;;;;;;;6.58;35.96;96689.88;5114896;28;20016;-63
2022/01/20 11:27:41;;;;;;;10.68;5.15;;;;;;;6.60;35.69;96669.94;5114935;28;20043;-62
2022/01/20 11:30:26;;;;;;;12.48;5.28;;;;;;;6.47;35.52;96661.50;5114899;28;20493;-63
2022/01/20 11:33:11;;;;;;;14.75;5.13;;;;;;;6.58;35.30;96653.50;5114596;28;20478;-63
2022/01/20 11:35:44;;;;;;;9.05;5.15;;;;;;;6.57;34.72;96652.63;5114875;28;20552;-63
2022/01/20 11:38:15;;;;;;;11.50;5.47;;;;;;;6.66;34.53;96645.53;5114770;28;20028;-63
2022/01/20 11:40:52;;;;;;;10.13;5.07;;;;;;;6.62;35.78;96642.13;5114268;28;20031;-63
2022/01/20 11:43:18;;;;;;;10.45;4.80;;;;;;;6.68;34.72;96648.94;5114592;28;20193;-63
2022/01/20 11:45:51;;;;;;;9.52;4.68;;;;;;;6.59;35.68;96631.81;5114535;28;20034;-63
2022/01/20 11:48:23;;;;;;;12.77;4.72;;;;;;;6.68;34.85;96628.16;5114462;28;20035;-63
2022/01/20 11:51:05;;;;;;;7.30;4.20;;;;;;;6.71;34.46;96633.28;5114384;28;20099;-62
2022/01/20 11:53:32;;;;;;;17.17;7.47;;;;;;;6.79;34.28;96622.72;5114511;28;20024;-63
2022/01/20 11:55:58;;;;;;;13.80;8.38;;;;;;;6.88;33.83;96622.53;5114429;28;20528;-63
2022/01/20 11:58:26;;;;;;;14.13;6.95;;;;;;;6.92;34.31;96623.31;5114352;28;20154;-63
2022/01/20 12:01:05;;;;;;;11.70;5.82;;;;;;;6.87;33.86;96623.44;5114284;28;20020;-63
2022/01/20 12:03:31;;;;;;;6.82;4.50;;;;;;;6.81;33.89;96620.97;5114295;28;20030;-62
2022/01/20 12:05:59;;;;;;;9.95;4.78;;;;;;;6.86;33.47;96615.66;5114400;28;20373;-63
2022/01/20 12:08:25;;;;;;;7.38;4.22;;;;;;;6.90;33.67;96612.97;5114227;28;20411;-63
2022/01/20 12:11:01;;;;;;;5.22;3.80;;;;;;;6.90;31.54;96607.78;5114032;28;20150;-63
2022/01/20 12:13:28;;;;;;;11.10;4.63;;;;;;;6.81;32.54;96606.19;5114147;28;20027;-63
2022/01/20 12:15:57;;;;;;;8.27;4.45;;;;;;;6.75;32.40;96600.28;5114038;28;20016;-63
2022/01/20 12:18:23;;;;;;;8.43;4.38;;;;;;;6.76;33.35;96597.66;5113763;28;20032;-63
2022/01/20 12:20:49;;;;;;;8.00;4.10;;;;;;;6.79;33.39;96596.72;5114014;28;20515;-63
2022/01/20 12:23:16;;;;;;;11.15;6.50;;;;;;;6.92;33.99;96603.38;5113944;28;20085;-63
2022/01/20 12:25:42;;;;;;;9.65;5.43;;;;;;;7.00;34.38;96600.59;5113925;28;20046;-62
2022/01/20 12:28:11;;;;;;;11.50;6.07;;;;;;;7.02;34.36;96605.78;5113749;28;20474;-63
2022/01/20 12:30:47;;;;;;;11.73;5.55;;;;;;;7.11;33.79;96609.91;5113822;28;20111;-62
2022/01/20 12:33:15;;;;;;;15.07;4.75;;;;;;;7.17;33.77;96608.00;5113781;28;20036;-63
2022/01/20 12:35:51;;;;;;;7.60;4.00;;;;;;;7.19;33.28;96608.84;5113605;28;20022;-63